Time;durP1;ratioP1;P1;durP2;ratioP2;P2;SDS_P1;SDS_P2;PMS_P1;PMS_P2;Temp;Humidity;BMP_temperature;BMP_pressure;BME280_temperature;BME280_humidity;BME280_pressure;Samples;Min_cycle;Max_cycle;Signal;HPM_P1;HPM_P2
2021/07/30 00:02:15;;;;;;;3.50;1.45;;;22.90;57.30;;;;;;4879242;29;20489;-60
2021/07/30 00:04:40;;;;;;;4.18;1.88;;;22.90;57.40;;;;;;4879005;29;20108;-59
2021/07/30 00:07:06;;;;;;;3.70;1.33;;;22.90;57.40;;;;;;4878101;29;20018;-60
2021/07/30 00:09:32;;;;;;;4.00;1.85;;;22.90;57.40;;;;;;4879360;29;20028;-59
2021/07/30 00:11:57;;;;;;;2.42;1.42;;;22.90;57.40;;;;;;4879303;29;20108;-59
2021/07/30 00:14:23;;;;;;;5.00;1.60;;;22.90;57.40;;;;;;4879283;29;20055;-59
2021/07/30 00:16:48;;;;;;;5.43;1.30;;;22.80;57.50;;;;;;4879133;29;20029;-59
2021/07/30 00:19:14;;;;;;;3.65;1.52;;;22.80;57.40;;;;;;4879125;29;20041;-60
2021/07/30 00:21:39;;;;;;;4.85;1.70;;;22.80;57.50;;;;;;4881620;29;20025;-59
2021/07/30 00:24:05;;;;;;;4.78;1.70;;;22.80;57.50;;;;;;4881358;29;20055;-59
2021/07/30 00:26:30;;;;;;;3.72;1.40;;;22.80;57.50;;;;;;4879170;29;20029;-59
2021/07/30 00:28:56;;;;;;;4.13;1.60;;;22.80;57.60;;;;;;4879155;29;20029;-59
2021/07/30 00:31:21;;;;;;;4.40;1.63;;;22.80;57.50;;;;;;4879221;29;20030;-60
2021/07/30 00:33:47;;;;;;;3.38;1.33;;;22.80;57.50;;;;;;4879180;29;20450;-59
2021/07/30 00:36:12;;;;;;;3.63;1.33;;;22.80;57.60;;;;;;4879460;29;20033;-60
2021/07/30 00:38:38;;;;;;;3.55;1.60;;;22.70;57.50;;;;;;4879070;29;20045;-59
2021/07/30 00:41:04;;;;;;;5.28;1.52;;;22.80;57.60;;;;;;4879303;29;20025;-59
2021/07/30 00:43:29;;;;;;;3.22;1.55;;;22.70;57.70;;;;;;4879261;29;20033;-59
2021/07/30 00:45:59;;;;;;;3.90;1.73;;;22.70;57.60;;;;;;4879076;29;20140;-60
2021/07/30 00:48:25;;;;;;;3.47;1.73;;;22.70;57.60;;;;;;4879039;29;20470;-59
2021/07/30 00:50:52;;;;;;;4.28;1.35;;;22.70;57.70;;;;;;4879482;29;20052;-59
2021/07/30 00:53:18;;;;;;;3.15;1.38;;;22.70;57.70;;;;;;4879221;29;20041;-59
2021/07/30 00:55:46;;;;;;;3.50;1.60;;;22.60;57.80;;;;;;4878994;29;20429;-59
2021/07/30 00:58:12;;;;;;;3.47;1.38;;;22.60;57.70;;;;;;4879092;29;20037;-59
2021/07/30 01:00:38;;;;;;;2.38;1.33;;;22.60;57.80;;;;;;4877538;29;20081;-60
2021/07/30 01:03:04;;;;;;;3.20;1.30;;;22.60;57.80;;;;;;4878862;29;20506;-59
2021/07/30 01:05:31;;;;;;;3.20;1.50;;;22.60;57.80;;;;;;4878806;29;20056;-59
2021/07/30 01:07:57;;;;;;;4.13;1.30;;;22.60;57.80;;;;;;4878924;29;20115;-60
2021/07/30 01:10:23;;;;;;;3.42;1.42;;;22.60;57.90;;;;;;4878914;29;20029;-59
2021/07/30 01:12:48;;;;;;;3.95;1.63;;;22.60;57.80;;;;;;4878938;29;20067;-59
2021/07/30 01:15:14;;;;;;;3.25;1.40;;;22.50;57.80;;;;;;4878917;29;20025;-59
2021/07/30 01:17:39;;;;;;;3.88;1.58;;;22.60;57.90;;;;;;4888269;29;20044;-59
2021/07/30 01:20:05;;;;;;;3.30;1.50;;;22.50;57.80;;;;;;4892552;29;20107;-60
2021/07/30 01:22:34;;;;;;;4.75;1.58;;;22.50;57.90;;;;;;4887292;29;20029;-59
2021/07/30 01:25:00;;;;;;;3.50;1.35;;;22.50;57.90;;;;;;4882398;29;20039;-59
2021/07/30 01:27:26;;;;;;;4.07;1.50;;;22.50;57.90;;;;;;4882410;29;20033;-60
2021/07/30 01:29:52;;;;;;;3.60;1.60;;;22.50;57.90;;;;;;4882360;29;20418;-59
2021/07/30 01:32:19;;;;;;;4.20;1.58;;;22.50;57.80;;;;;;4882116;29;20033;-60
2021/07/30 01:34:44;;;;;;;3.83;1.38;;;22.50;57.80;;;;;;4882000;29;20509;-59
2021/07/30 01:37:11;;;;;;;3.22;1.38;;;22.50;57.80;;;;;;4881842;29;20037;-59
2021/07/30 01:39:36;;;;;;;3.83;1.35;;;22.50;57.90;;;;;;4881940;29;20055;-59
2021/07/30 01:42:02;;;;;;;4.05;1.58;;;22.50;57.80;;;;;;4881841;29;20025;-59
2021/07/30 01:44:28;;;;;;;4.97;1.80;;;22.50;57.90;;;;;;4881950;29;20036;-59
2021/07/30 01:46:54;;;;;;;3.83;1.42;;;22.50;57.80;;;;;;4881802;29;20053;-59
2021/07/30 01:49:19;;;;;;;3.97;1.20;;;22.50;57.90;;;;;;4881828;29;20037;-59
2021/07/30 01:51:45;;;;;;;3.67;1.50;;;22.40;57.80;;;;;;4881728;29;20386;-60
2021/07/30 01:54:14;;;;;;;4.22;1.38;;;22.40;57.90;;;;;;4881587;29;20040;-59
2021/07/30 01:56:40;;;;;;;3.55;1.50;;;22.50;57.90;;;;;;4881651;29;20033;-59
2021/07/30 01:59:06;;;;;;;4.40;1.30;;;22.50;57.90;;;;;;4881374;29;20041;-60
2021/07/30 02:01:31;;;;;;;4.28;1.75;;;22.40;57.90;;;;;;4881510;29;20038;-59
2021/07/30 02:03:59;;;;;;;3.38;1.45;;;22.50;57.90;;;;;;4881323;29;20158;-59
2021/07/30 02:06:24;;;;;;;3.45;1.30;;;22.50;57.80;;;;;;4881557;29;20064;-59
2021/07/30 02:08:50;;;;;;;3.67;1.60;;;22.40;57.80;;;;;;4881804;29;20033;-60
2021/07/30 02:11:15;;;;;;;3.33;1.55;;;22.50;57.80;;;;;;4881513;29;20481;-60
2021/07/30 02:16:25;;;;;;;3.78;1.58;;;22.40;57.80;;;;;;4881325;29;20040;-60
2021/07/30 02:18:51;;;;;;;3.40;1.30;;;22.40;57.80;;;;;;4881179;29;20482;-60
2021/07/30 02:21:17;;;;;;;3.55;1.33;;;22.40;57.80;;;;;;4881265;29;20040;-60
2021/07/30 02:23:44;;;;;;;3.28;1.30;;;22.40;57.80;;;;;;4879923;29;20033;-60
2021/07/30 02:26:10;;;;;;;3.60;1.60;;;22.50;57.80;;;;;;4880810;29;20029;-60
2021/07/30 02:28:35;;;;;;;3.97;1.52;;;22.40;57.80;;;;;;4881108;29;20069;-61
2021/07/30 02:31:01;;;;;;;5.65;1.60;;;22.40;57.80;;;;;;4881030;29;20073;-60
2021/07/30 02:33:26;;;;;;;4.32;1.70;;;22.40;57.80;;;;;;4880921;29;20493;-60
2021/07/30 02:35:52;;;;;;;3.40;1.85;;;22.40;57.70;;;;;;4880908;29;20036;-60
2021/07/30 02:38:17;;;;;;;3.45;1.67;;;22.40;57.80;;;;;;4881050;29;20547;-61
2021/07/30 02:40:43;;;;;;;3.17;1.27;;;22.40;57.80;;;;;;4880786;29;20516;-60
2021/07/30 02:43:08;;;;;;;3.42;1.55;;;22.40;57.80;;;;;;4880984;29;20029;-60
2021/07/30 02:45:34;;;;;;;4.20;1.75;;;22.40;57.80;;;;;;4880722;29;20028;-60
2021/07/30 02:47:59;;;;;;;3.53;1.50;;;22.40;57.80;;;;;;4880681;29;20032;-60
2021/07/30 02:50:25;;;;;;;3.55;1.65;;;22.40;57.80;;;;;;4880614;29;20041;-60
2021/07/30 02:52:50;;;;;;;3.35;1.60;;;22.40;57.80;;;;;;4880601;29;20064;-60
2021/07/30 02:55:16;;;;;;;5.35;1.60;;;22.40;57.90;;;;;;4879393;29;20206;-60
2021/07/30 02:57:44;;;;;;;3.83;1.55;;;22.40;57.80;;;;;;4880438;29;20367;-61
2021/07/30 03:00:10;;;;;;;3.70;1.40;;;22.40;57.80;;;;;;4879215;29;20033;-60
2021/07/30 03:02:35;;;;;;;4.03;1.50;;;22.30;57.90;;;;;;4886485;29;20423;-60
2021/07/30 03:05:01;;;;;;;3.20;1.40;;;22.30;57.90;;;;;;4889435;29;20040;-59
2021/07/30 03:07:26;;;;;;;4.50;1.30;;;22.30;57.90;;;;;;4883073;29;20116;-60
2021/07/30 03:09:52;;;;;;;3.75;1.77;;;22.30;57.90;;;;;;4880321;29;20048;-59
2021/07/30 03:12:17;;;;;;;3.65;1.40;;;22.30;58.00;;;;;;4880257;29;20032;-60
2021/07/30 03:14:44;;;;;;;3.53;1.42;;;22.30;58.00;;;;;;4880318;29;20059;-59
2021/07/30 03:17:09;;;;;;;4.03;1.30;;;22.30;58.00;;;;;;4880337;29;20112;-59
2021/07/30 03:19:35;;;;;;;5.13;1.85;;;22.30;58.00;;;;;;4880064;29;20041;-60
2021/07/30 03:22:00;;;;;;;4.55;1.63;;;22.20;58.00;;;;;;4880018;29;20025;-59
2021/07/30 03:24:26;;;;;;;3.35;1.40;;;22.20;58.00;;;;;;4879919;29;20029;-60
2021/07/30 03:26:51;;;;;;;3.45;1.40;;;22.20;58.00;;;;;;4881497;29;20033;-60
2021/07/30 03:29:17;;;;;;;4.43;1.67;;;22.30;58.00;;;;;;4881240;29;20018;-60
2021/07/30 03:31:47;;;;;;;3.83;1.70;;;22.20;58.00;;;;;;4881228;29;20116;-59
2021/07/30 03:34:13;;;;;;;4.38;1.55;;;22.20;58.00;;;;;;4879927;29;20116;-59
2021/07/30 03:36:39;;;;;;;4.43;1.52;;;22.20;58.00;;;;;;4879839;29;20036;-59
2021/07/30 03:39:04;;;;;;;3.78;1.50;;;22.20;58.00;;;;;;4879101;29;20041;-59
2021/07/30 03:41:30;;;;;;;3.95;1.50;;;22.20;58.00;;;;;;4879665;29;20025;-59
2021/07/30 03:43:55;;;;;;;3.45;1.52;;;22.20;58.10;;;;;;4879725;29;20039;-59
2021/07/30 03:46:21;;;;;;;5.25;1.60;;;22.20;58.10;;;;;;4879714;29;20029;-59
2021/07/30 03:48:46;;;;;;;3.08;1.15;;;22.20;58.10;;;;;;4879560;29;20088;-59
2021/07/30 03:51:12;;;;;;;4.38;1.67;;;22.20;58.10;;;;;;4879589;29;20033;-59
2021/07/30 03:53:37;;;;;;;3.40;1.38;;;22.20;58.10;;;;;;4879663;29;20033;-59
2021/07/30 03:56:12;;;;;;;4.10;1.83;;;22.20;58.10;;;;;;4879418;29;20029;-59
2021/07/30 03:58:38;;;;;;;3.47;1.40;;;22.20;58.10;;;;;;4879624;29;20079;-59
2021/07/30 04:01:08;;;;;;;4.68;1.80;;;22.20;58.20;;;;;;4879773;29;20057;-60
2021/07/30 04:03:33;;;;;;;4.20;1.63;;;22.10;58.10;;;;;;4884946;29;20078;-59
2021/07/30 04:06:01;;;;;;;3.65;1.70;;;22.10;58.20;;;;;;4879526;29;20032;-60
2021/07/30 04:08:27;;;;;;;3.05;1.45;;;22.20;58.20;;;;;;4879484;29;20332;-60
2021/07/30 04:10:52;;;;;;;4.75;1.40;;;22.10;58.20;;;;;;4879245;29;20025;-60
2021/07/30 04:13:18;;;;;;;3.35;1.40;;;22.10;58.10;;;;;;4879215;29;20037;-59
2021/07/30 04:15:43;;;;;;;4.00;1.70;;;22.20;58.10;;;;;;4879317;29;20382;-59
2021/07/30 04:18:09;;;;;;;3.22;1.50;;;22.10;58.10;;;;;;4879146;29;20025;-59
2021/07/30 04:20:37;;;;;;;3.22;1.55;;;22.10;58.10;;;;;;4879197;29;20040;-59
2021/07/30 04:23:02;;;;;;;3.20;1.40;;;22.10;58.10;;;;;;4879397;29;20025;-59
2021/07/30 04:25:28;;;;;;;4.93;1.52;;;22.10;58.10;;;;;;4879125;29;20033;-59
2021/07/30 04:27:53;;;;;;;2.60;1.30;;;22.10;58.10;;;;;;4879420;29;20425;-59
2021/07/30 04:30:21;;;;;;;5.15;2.00;;;22.10;58.10;;;;;;4879102;29;20430;-59
2021/07/30 04:32:46;;;;;;;2.70;1.20;;;22.10;58.10;;;;;;4879080;29;20478;-59
2021/07/30 04:35:12;;;;;;;3.65;1.67;;;22.10;58.10;;;;;;4878994;29;20029;-59
2021/07/30 04:37:37;;;;;;;3.55;1.50;;;22.10;58.10;;;;;;4878942;29;20029;-59
2021/07/30 04:40:03;;;;;;;4.28;1.55;;;22.10;58.10;;;;;;4877749;29;20036;-59
2021/07/30 04:42:29;;;;;;;3.35;1.40;;;22.10;58.00;;;;;;4878943;29;20040;-59
2021/07/30 04:44:54;;;;;;;4.10;1.70;;;22.10;58.00;;;;;;4878973;29;20028;-59
2021/07/30 04:47:20;;;;;;;3.75;1.63;;;22.10;58.10;;;;;;4878894;29;20029;-59
2021/07/30 04:49:45;;;;;;;2.72;1.30;;;22.10;58.10;;;;;;4879864;29;20089;-59
2021/07/30 04:52:11;;;;;;;4.25;1.63;;;22.10;58.10;;;;;;4882773;29;20462;-59
2021/07/30 04:54:36;;;;;;;3.22;1.70;;;22.10;58.10;;;;;;4882846;29;20033;-59
2021/07/30 04:57:02;;;;;;;3.47;1.70;;;22.10;58.10;;;;;;4882887;29;20025;-59
2021/07/30 04:59:27;;;;;;;3.92;1.45;;;22.10;58.10;;;;;;4882682;29;20473;-61
2021/07/30 05:01:53;;;;;;;2.78;1.25;;;22.10;58.10;;;;;;4882911;29;20025;-59
2021/07/30 05:04:19;;;;;;;4.20;1.90;;;22.10;58.10;;;;;;4884531;29;20136;-60
2021/07/30 05:06:45;;;;;;;2.90;1.25;;;22.10;58.10;;;;;;4892673;29;20029;-59
2021/07/30 05:09:11;;;;;;;5.30;1.60;;;22.10;58.10;;;;;;4892057;29;20028;-59
2021/07/30 05:11:36;;;;;;;2.90;1.50;;;22.10;58.10;;;;;;4882980;29;20495;-62
2021/07/30 05:14:02;;;;;;;3.38;1.45;;;22.00;58.10;;;;;;4882421;29;20029;-59
2021/07/30 05:16:27;;;;;;;4.50;1.75;;;22.10;58.10;;;;;;4882320;29;20109;-60
2021/07/30 05:18:53;;;;;;;4.60;1.73;;;22.10;58.10;;;;;;4882169;29;20048;-60
2021/07/30 05:21:19;;;;;;;4.53;1.75;;;22.10;58.10;;;;;;4882342;29;20037;-60
2021/07/30 05:23:44;;;;;;;3.80;1.58;;;22.00;58.10;;;;;;4882459;29;20470;-60
2021/07/30 05:26:10;;;;;;;4.65;1.50;;;22.10;58.10;;;;;;4882375;29;20036;-60
2021/07/30 05:28:35;;;;;;;3.38;1.42;;;22.00;58.10;;;;;;4882404;29;20471;-60
2021/07/30 05:31:02;;;;;;;4.35;1.60;;;22.10;58.10;;;;;;4882133;29;20029;-59
2021/07/30 05:33:28;;;;;;;6.18;1.80;;;22.10;58.10;;;;;;4889406;29;20033;-59
2021/07/30 05:35:54;;;;;;;4.20;1.50;;;22.10;58.10;;;;;;4882824;29;20025;-59
2021/07/30 05:38:21;;;;;;;6.38;2.08;;;22.10;58.00;;;;;;4884576;29;20051;-59
2021/07/30 05:40:48;;;;;;;5.00;1.73;;;22.10;58.00;;;;;;4884646;29;20061;-59
2021/07/30 05:43:14;;;;;;;4.05;1.70;;;22.10;58.10;;;;;;4882066;29;20040;-59
2021/07/30 05:45:40;;;;;;;3.05;1.65;;;22.00;58.00;;;;;;4881869;29;20021;-59
2021/07/30 05:48:07;;;;;;;3.50;1.48;;;22.10;58.00;;;;;;4881510;29;20438;-59
2021/07/30 05:50:33;;;;;;;3.33;1.30;;;22.10;58.00;;;;;;4881747;29;20029;-59
2021/07/30 05:52:58;;;;;;;3.70;1.65;;;22.10;58.00;;;;;;4881709;29;20028;-59
2021/07/30 05:55:24;;;;;;;4.85;1.42;;;22.10;58.00;;;;;;4881529;29;20033;-60
2021/07/30 05:57:49;;;;;;;4.15;1.67;;;22.10;58.00;;;;;;4881443;29;20025;-59
2021/07/30 06:00:15;;;;;;;3.63;1.58;;;22.00;58.00;;;;;;4881481;29;20414;-59
2021/07/30 06:02:40;;;;;;;4.28;1.85;;;22.10;58.00;;;;;;4880819;29;20053;-60
2021/07/30 06:05:07;;;;;;;2.05;1.27;;;22.10;58.00;;;;;;4881380;29;20029;-59
2021/07/30 06:07:33;;;;;;;4.07;1.50;;;22.10;58.00;;;;;;4881313;29;20032;-59
2021/07/30 06:09:58;;;;;;;4.38;1.50;;;22.00;58.10;;;;;;4881487;29;20017;-59
2021/07/30 06:12:24;;;;;;;3.58;1.70;;;22.10;58.00;;;;;;4881309;29;20076;-59
2021/07/30 06:14:49;;;;;;;4.68;1.48;;;22.10;58.00;;;;;;4883483;29;20025;-59
2021/07/30 06:17:15;;;;;;;3.67;1.40;;;22.10;57.90;;;;;;4882653;29;20385;-59
2021/07/30 06:19:40;;;;;;;4.05;1.50;;;22.10;58.00;;;;;;4881205;29;20045;-59
2021/07/30 06:22:06;;;;;;;7.75;1.88;;;22.10;57.90;;;;;;4881299;29;20169;-59
2021/07/30 06:24:32;;;;;;;3.03;1.45;;;22.10;57.90;;;;;;4880979;29;20443;-59
2021/07/30 06:26:57;;;;;;;3.78;1.50;;;22.10;57.90;;;;;;4881063;29;20100;-59
2021/07/30 06:29:23;;;;;;;3.30;1.50;;;22.20;57.80;;;;;;4880964;29;20056;-59
2021/07/30 06:31:48;;;;;;;4.32;1.92;;;22.20;57.70;;;;;;4880952;29;20529;-59
2021/07/30 06:34:14;;;;;;;4.18;1.35;;;22.20;57.70;;;;;;4880888;29;20029;-60
2021/07/30 06:36:39;;;;;;;3.78;1.50;;;22.20;57.70;;;;;;4880855;29;20060;-60
2021/07/30 06:39:05;;;;;;;4.13;1.40;;;22.20;57.50;;;;;;4880789;29;20041;-59
2021/07/30 06:41:31;;;;;;;3.58;1.50;;;22.30;57.50;;;;;;4880823;29;20057;-59
2021/07/30 06:43:56;;;;;;;3.85;1.58;;;22.30;57.50;;;;;;4880693;29;20072;-60
2021/07/30 06:46:22;;;;;;;3.33;1.60;;;22.30;57.40;;;;;;4881072;29;20025;-59
2021/07/30 06:48:47;;;;;;;3.60;1.55;;;22.30;57.40;;;;;;4880515;29;20037;-59
2021/07/30 06:51:13;;;;;;;3.00;1.45;;;22.40;57.40;;;;;;4880460;29;20028;-60
2021/07/30 06:53:39;;;;;;;3.83;1.60;;;22.30;57.40;;;;;;4880443;29;20389;-59
2021/07/30 06:56:09;;;;;;;4.63;1.70;;;22.30;57.40;;;;;;4880458;29;20028;-59
2021/07/30 06:58:34;;;;;;;5.22;1.77;;;22.30;57.40;;;;;;4880286;29;20481;-60
2021/07/30 07:01:05;;;;;;;3.65;1.52;;;22.40;57.30;;;;;;4880314;29;20044;-59
2021/07/30 07:03:31;;;;;;;6.25;1.75;;;22.40;57.30;;;;;;4880277;29;20041;-60
2021/07/30 07:05:57;;;;;;;2.90;1.27;;;22.40;57.30;;;;;;4880382;29;20044;-59
2021/07/30 07:08:22;;;;;;;2.67;1.48;;;22.40;57.30;;;;;;4880337;29;20411;-59
2021/07/30 07:10:48;;;;;;;4.05;1.33;;;22.40;57.20;;;;;;4880539;29;20149;-59
2021/07/30 07:13:15;;;;;;;3.08;1.10;;;22.40;57.20;;;;;;4890680;29;20048;-59
2021/07/30 07:15:45;;;;;;;2.92;1.60;;;22.40;57.20;;;;;;4883290;29;20045;-59
2021/07/30 07:18:11;;;;;;;2.67;1.38;;;22.40;57.20;;;;;;4880345;29;20494;-59
2021/07/30 07:20:37;;;;;;;3.10;1.35;;;22.40;57.30;;;;;;4880194;29;20048;-59
2021/07/30 07:23:03;;;;;;;3.30;1.50;;;22.40;57.20;;;;;;4880050;29;20073;-60
2021/07/30 07:25:28;;;;;;;6.80;1.85;;;22.40;57.20;;;;;;4880299;29;20036;-59
2021/07/30 07:27:54;;;;;;;3.92;1.80;;;22.50;57.20;;;;;;4880424;29;20065;-59
2021/07/30 07:30:20;;;;;;;3.55;1.42;;;22.40;57.20;;;;;;4880037;29;20046;-60
2021/07/30 07:32:46;;;;;;;3.42;1.65;;;22.40;57.20;;;;;;4880006;29;20493;-59
2021/07/30 07:35:19;;;;;;;3.50;1.50;;;22.50;57.10;;;;;;5070014;28;20449;-59
2021/07/30 07:37:44;;;;;;;4.65;1.60;;;22.50;57.10;;;;;;5070170;28;20025;-59
2021/07/30 07:40:10;;;;;;;3.75;1.70;;;22.40;57.10;;;;;;5070120;28;20107;-59
2021/07/30 07:42:35;;;;;;;2.53;1.52;;;22.50;57.10;;;;;;5069819;28;20024;-59
2021/07/30 07:45:01;;;;;;;2.72;1.42;;;22.50;57.10;;;;;;5069852;28;20422;-63
2021/07/30 07:47:27;;;;;;;2.45;1.30;;;22.50;57.10;;;;;;5069801;28;20029;-59
2021/07/30 07:49:53;;;;;;;2.80;1.45;;;22.50;57.00;;;;;;5068599;28;20025;-59
2021/07/30 07:52:19;;;;;;;3.83;1.60;;;22.50;57.00;;;;;;5069779;28;20035;-59
2021/07/30 07:54:45;;;;;;;5.15;2.00;;;22.50;57.00;;;;;;5069613;28;20472;-59
2021/07/30 07:57:11;;;;;;;5.10;1.77;;;22.50;57.00;;;;;;5069609;28;20117;-60
2021/07/30 07:59:37;;;;;;;3.65;1.30;;;22.50;56.90;;;;;;5069459;28;20100;-59
2021/07/30 08:02:05;;;;;;;5.85;1.40;;;22.50;57.00;;;;;;5069465;28;20024;-59
2021/07/30 08:04:31;;;;;;;3.00;1.40;;;22.50;56.90;;;;;;5069520;28;20107;-59
2021/07/30 08:06:56;;;;;;;3.15;1.20;;;22.50;56.90;;;;;;5069492;28;20029;-59
2021/07/30 08:09:22;;;;;;;3.30;1.33;;;22.60;56.90;;;;;;5069364;28;20471;-59
2021/07/30 08:11:48;;;;;;;4.10;1.60;;;22.50;56.80;;;;;;5069289;28;20023;-59
2021/07/30 08:14:13;;;;;;;3.80;1.45;;;22.60;56.90;;;;;;5068209;28;20110;-59
2021/07/30 08:16:39;;;;;;;2.85;1.52;;;22.50;56.90;;;;;;5069147;28;20029;-59
2021/07/30 08:19:04;;;;;;;3.13;1.30;;;22.50;56.90;;;;;;5068911;28;20029;-59
2021/07/30 08:21:30;;;;;;;3.70;1.48;;;22.50;56.90;;;;;;5068758;28;20100;-59
2021/07/30 08:23:56;;;;;;;2.83;1.38;;;22.60;56.90;;;;;;5068948;28;20035;-59
2021/07/30 08:26:22;;;;;;;3.90;1.55;;;22.60;56.80;;;;;;5069138;28;20021;-59
2021/07/30 08:28:47;;;;;;;3.70;2.03;;;22.60;56.80;;;;;;5069255;28;20017;-59
2021/07/30 08:31:13;;;;;;;2.75;1.17;;;22.60;56.80;;;;;;5068952;28;20017;-59
2021/07/30 08:33:38;;;;;;;3.38;1.33;;;22.60;56.80;;;;;;5068613;28;20127;-59
2021/07/30 08:36:07;;;;;;;3.70;1.50;;;22.60;56.80;;;;;;5069198;28;20020;-59
2021/07/30 08:38:33;;;;;;;4.10;1.45;;;22.60;56.80;;;;;;5069112;28;20031;-59
2021/07/30 08:40:59;;;;;;;2.83;1.30;;;22.60;56.70;;;;;;5068614;28;20107;-59
2021/07/30 08:43:24;;;;;;;3.63;1.48;;;22.60;56.70;;;;;;5068663;28;20033;-59
2021/07/30 08:45:50;;;;;;;2.97;1.20;;;22.60;56.70;;;;;;5058666;28;20036;-58
2021/07/30 08:48:17;;;;;;;3.58;1.35;;;22.70;56.70;;;;;;5055394;28;20066;-59
2021/07/30 08:50:43;;;;;;;3.35;1.40;;;22.60;56.80;;;;;;5055455;28;20029;-59
2021/07/30 08:53:11;;;;;;;4.13;1.60;;;22.70;56.70;;;;;;5055161;28;20155;-59
2021/07/30 08:55:36;;;;;;;3.20;1.23;;;22.70;56.70;;;;;;5055153;28;20039;-60
2021/07/30 08:58:02;;;;;;;2.70;1.20;;;22.70;56.70;;;;;;5055055;28;20108;-59
2021/07/30 09:00:27;;;;;;;3.63;1.52;;;22.70;56.70;;;;;;5053689;28;20037;-59
2021/07/30 09:02:56;;;;;;;4.43;1.20;;;22.70;56.60;;;;;;5055125;28;20021;-59
2021/07/30 09:05:26;;;;;;;2.58;1.25;;;22.70;56.70;;;;;;5055082;28;20119;-59
2021/07/30 09:07:51;;;;;;;2.30;1.02;;;22.70;56.70;;;;;;5054859;28;20021;-59
2021/07/30 09:10:43;;;;;;;2.72;1.17;;;22.70;56.60;;;;;;5054906;28;20040;-59
2021/07/30 09:13:26;;;;;;;3.13;1.58;;;22.70;56.60;;;;;;5054828;28;20028;-60
2021/07/30 09:16:05;;;;;;;2.83;1.08;;;22.70;56.60;;;;;;5055083;28;20112;-59
2021/07/30 09:18:39;;;;;;;3.88;1.50;;;22.80;56.60;;;;;;5054764;28;20031;-59
2021/07/30 09:21:15;;;;;;;3.50;1.58;;;22.80;56.60;;;;;;5054950;28;20029;-59
2021/07/30 09:23:46;;;;;;;2.42;1.17;;;22.70;56.60;;;;;;5055102;28;20040;-59
2021/07/30 09:26:32;;;;;;;3.10;1.33;;;22.80;56.60;;;;;;5054641;28;20021;-59
2021/07/30 09:29:00;;;;;;;3.80;1.40;;;22.80;56.60;;;;;;5057495;28;20029;-59
2021/07/30 09:31:35;;;;;;;1.83;0.95;;;22.80;56.60;;;;;;5054752;28;20109;-60
2021/07/30 09:34:37;;;;;;;2.03;1.15;;;22.80;56.60;;;;;;5054308;28;20401;-60
2021/07/30 09:37:11;;;;;;;2.03;1.02;;;22.80;56.60;;;;;;5032476;28;20456;-60
2021/07/30 09:39:41;;;;;;;1.80;1.00;;;22.80;56.60;;;;;;5051275;28;20164;-59
2021/07/30 09:42:11;;;;;;;2.92;1.30;;;22.80;56.50;;;;;;5054560;28;20480;-59
2021/07/30 09:44:58;;;;;;;1.50;0.82;;;22.80;56.50;;;;;;5054621;28;20049;-59
2021/07/30 09:47:29;;;;;;;1.77;1.10;;;22.80;56.50;;;;;;5054383;28;20380;-59
2021/07/30 09:50:04;;;;;;;2.90;1.27;;;22.80;56.40;;;;;;5054103;28;20431;-59
2021/07/30 09:52:32;;;;;;;3.22;1.15;;;22.80;56.40;;;;;;5054182;28;20025;-59
2021/07/30 09:54:59;;;;;;;3.65;1.50;;;22.90;56.40;;;;;;5054007;28;20048;-59
2021/07/30 09:57:26;;;;;;;3.22;1.30;;;22.90;56.40;;;;;;5053127;28;20020;-59
2021/07/30 10:00:25;;;;;;;3.53;1.40;;;22.90;56.40;;;;;;5054144;28;20035;-59
2021/07/30 10:02:52;;;;;;;2.53;1.48;;;22.90;56.40;;;;;;5049479;28;20439;-59
2021/07/30 10:05:20;;;;;;;2.88;1.35;;;22.90;56.40;;;;;;5054446;28;20021;-59
2021/07/30 10:07:45;;;;;;;3.13;1.42;;;22.90;56.40;;;;;;5054977;28;20024;-59
2021/07/30 10:10:20;;;;;;;1.90;1.02;;;22.90;56.40;;;;;;5059532;28;20032;-59
2021/07/30 10:12:53;;;;;;;2.75;1.40;;;22.90;56.40;;;;;;5055021;28;20037;-59
2021/07/30 10:15:19;;;;;;;2.20;1.20;;;22.90;56.40;;;;;;5053982;28;20033;-59
2021/07/30 10:17:50;;;;;;;3.67;1.17;;;22.90;56.40;;;;;;5053955;28;20388;-59
2021/07/30 10:20:17;;;;;;;2.80;1.33;;;22.90;56.40;;;;;;5053571;28;20032;-59
2021/07/30 10:23:11;;;;;;;3.20;1.30;;;22.90;56.40;;;;;;5054056;28;20029;-59
2021/07/30 10:25:39;;;;;;;3.00;1.10;;;22.90;56.40;;;;;;5053849;28;20108;-59
2021/07/30 10:28:11;;;;;;;3.55;1.40;;;22.90;56.30;;;;;;5053632;28;20029;-59
2021/07/30 10:31:10;;;;;;;2.65;1.23;;;23.00;56.30;;;;;;5053465;28;20025;-59
2021/07/30 10:33:38;;;;;;;3.90;1.40;;;23.00;56.30;;;;;;5053189;28;20077;-59
2021/07/30 10:36:05;;;;;;;2.15;1.13;;;23.00;56.30;;;;;;5052324;28;20431;-59
2021/07/30 10:38:31;;;;;;;3.05;1.33;;;23.00;56.30;;;;;;5053175;28;20064;-60
2021/07/30 10:41:09;;;;;;;3.17;1.20;;;23.00;56.20;;;;;;5053384;28;20018;-59
2021/07/30 10:44:00;;;;;;;3.63;1.35;;;23.00;56.20;;;;;;5053176;28;20413;-59
2021/07/30 10:46:26;;;;;;;3.33;1.40;;;23.00;56.10;;;;;;5052986;28;20065;-60
2021/07/30 10:48:54;;;;;;;2.40;1.17;;;23.10;56.10;;;;;;5053021;28;20043;-60
2021/07/30 10:51:25;;;;;;;2.63;1.08;;;23.10;56.10;;;;;;5051682;28;20112;-59
2021/07/30 10:54:03;;;;;;;3.53;1.23;;;23.10;56.20;;;;;;5053059;28;20064;-59
2021/07/30 10:56:32;;;;;;;2.63;1.30;;;23.10;56.20;;;;;;5052808;28;20033;-59
2021/07/30 10:59:01;;;;;;;2.13;1.02;;;23.10;56.10;;;;;;5053208;28;20070;-59
2021/07/30 11:01:29;;;;;;;4.10;1.40;;;23.10;56.10;;;;;;5052701;28;20377;-59
2021/07/30 11:04:04;;;;;;;2.97;1.27;;;23.10;56.10;;;;;;5052682;28;20021;-59
2021/07/30 11:06:39;;;;;;;2.40;1.10;;;23.10;56.10;;;;;;5052845;28;20028;-60
2021/07/30 11:09:05;;;;;;;2.15;0.98;;;23.10;56.10;;;;;;5052449;28;20037;-59
2021/07/30 11:11:39;;;;;;;2.42;1.10;;;23.20;56.10;;;;;;5052709;28;20025;-60
2021/07/30 11:14:13;;;;;;;3.00;1.23;;;23.20;56.10;;;;;;5052635;28;20504;-60
2021/07/30 11:16:52;;;;;;;;;;;23.20;56.10;;;;;;5053076;28;20365;-59
2021/07/30 11:19:20;;;;;;;3.05;1.40;;;23.20;56.10;;;;;;5053939;28;19904;-60
2021/07/30 11:21:46;;;;;;;2.53;1.23;;;23.20;56.00;;;;;;5055904;28;20049;-59
2021/07/30 11:24:12;;;;;;;4.15;1.40;;;23.20;56.00;;;;;;5052758;28;20055;-60
2021/07/30 11:26:39;;;;;;;2.58;1.13;;;23.20;56.00;;;;;;5052376;28;20058;-59
2021/07/30 11:29:09;;;;;;;2.40;0.90;;;23.30;56.00;;;;;;5051207;28;20036;-59
2021/07/30 11:31:55;;;;;;;2.17;1.10;;;23.30;56.00;;;;;;5052464;28;20473;-59
2021/07/30 11:34:42;;;;;;;2.17;1.20;;;23.40;55.90;;;;;;5052479;28;20061;-59
2021/07/30 11:37:12;;;;;;;2.33;1.10;;;23.40;55.80;;;;;;5052266;28;20036;-59
2021/07/30 11:39:43;;;;;;;2.67;1.23;;;23.40;55.80;;;;;;5052653;28;20021;-59
2021/07/30 11:42:38;;;;;;;2.83;1.30;;;23.50;55.80;;;;;;5051495;28;20025;-59
2021/07/30 11:45:06;;;;;;;;;;;23.50;55.70;;;;;;5052888;28;20025;-59
2021/07/30 11:47:34;;;;;;;2.53;1.00;;;23.50;55.80;;;;;;5052371;28;19911;-59
2021/07/30 11:50:07;;;;;;;2.42;1.17;;;23.50;55.80;;;;;;5052419;28;20028;-59
2021/07/30 11:52:34;;;;;;;2.43;1.07;;;23.50;55.80;;;;;;5052343;28;20032;-60
2021/07/30 11:55:16;;;;;;;2.95;1.27;;;23.50;55.70;;;;;;5052535;28;20033;-60
2021/07/30 11:57:42;;;;;;;2.55;1.30;;;23.50;55.80;;;;;;5052695;28;20025;-60
2021/07/30 12:00:09;;;;;;;2.35;1.25;;;23.50;55.70;;;;;;5053020;28;20037;-59
2021/07/30 12:02:34;;;;;;;1.90;1.17;;;23.50;55.70;;;;;;5052758;28;20388;-59
2021/07/30 12:05:00;;;;;;;2.85;1.10;;;23.60;55.70;;;;;;5052307;28;20029;-59
2021/07/30 12:07:36;;;;;;;2.97;1.40;;;23.60;55.70;;;;;;5055698;28;20021;-59
2021/07/30 12:10:07;;;;;;;2.95;1.25;;;23.60;55.70;;;;;;5061152;28;20021;-59
2021/07/30 12:12:38;;;;;;;3.60;1.20;;;23.70;55.60;;;;;;5053197;28;20057;-59
2021/07/30 12:15:04;;;;;;;2.60;1.25;;;23.70;55.60;;;;;;5052673;28;20456;-59
2021/07/30 12:17:30;;;;;;;3.05;1.27;;;23.70;55.60;;;;;;5052409;28;20573;-59
2021/07/30 12:20:02;;;;;;;1.65;1.02;;;23.60;55.60;;;;;;5052923;28;20060;-59
2021/07/30 12:22:35;;;;;;;2.95;1.20;;;23.70;55.50;;;;;;5056908;28;20052;-59
2021/07/30 12:25:00;;;;;;;2.25;1.25;;;23.70;55.40;;;;;;5056320;28;20024;-59
2021/07/30 12:27:26;;;;;;;2.13;1.02;;;23.80;55.40;;;;;;5055982;28;20075;-59
2021/07/30 12:29:51;;;;;;;2.55;1.10;;;23.80;55.30;;;;;;5056052;28;20039;-59
2021/07/30 12:32:22;;;;;;;2.67;1.15;;;23.90;55.30;;;;;;5055836;28;20025;-59
2021/07/30 12:35:04;;;;;;;2.70;1.35;;;23.90;55.30;;;;;;5055519;28;20052;-59
2021/07/30 12:37:31;;;;;;;1.17;0.75;;;23.80;55.50;;;;;;5055979;28;20044;-59
2021/07/30 12:40:07;;;;;;;2.42;1.20;;;23.90;55.40;;;;;;5056286;28;20469;-59
2021/07/30 12:42:34;;;;;;;3.03;1.17;;;23.90;55.30;;;;;;5055545;28;20029;-60
2021/07/30 12:45:12;;;;;;;2.50;0.95;;;23.90;55.40;;;;;;5055629;28;20052;-58
2021/07/30 12:47:51;;;;;;;2.22;1.00;;;23.90;55.30;;;;;;5055597;28;20029;-58
2021/07/30 12:50:27;;;;;;;2.00;1.00;;;23.90;55.30;;;;;;5055320;28;20491;-59
2021/07/30 12:53:10;;;;;;;8.23;1.02;;;23.90;55.40;;;;;;5055582;28;20025;-59
2021/07/30 12:56:08;;;;;;;2.80;0.85;;;23.90;55.40;;;;;;5055347;28;20487;-59